Time;durP1;ratioP1;P1;durP2;ratioP2;P2;SDS_P1;SDS_P2;PMS_P1;PMS_P2;Temp;Humidity;BMP_temperature;BMP_pressure;BME280_temperature;BME280_humidity;BME280_pressure;Samples;Min_cycle;Max_cycle;Signal;HPM_P1;HPM_P2
2023/05/27 00:01:28;;;;;;;20.60;3.40;;;;;;;10.30;65.67;101279.42;107594;1264;22656;-75
2023/05/27 00:03:59;;;;;;;14.70;2.70;;;;;;;10.24;66.10;101273.29;107613;1272;22513;-75
2023/05/27 00:06:30;;;;;;;19.50;3.30;;;;;;;10.19;66.03;101275.76;107607;1266;22528;-75
2023/05/27 00:09:01;;;;;;;14.40;2.30;;;;;;;10.14;66.17;101275.67;107666;1266;22638;-75
2023/05/27 00:11:31;;;;;;;17.80;2.60;;;;;;;10.09;66.24;101275.61;107707;1266;22548;-76
2023/05/27 00:14:02;;;;;;;28.60;4.00;;;;;;;10.02;66.45;101273.92;107746;1271;22458;-76
2023/05/27 00:16:35;;;;;;;26.20;4.40;;;;;;;9.95;66.47;101274.23;107592;1266;22518;-76
2023/05/27 00:19:06;;;;;;;31.50;3.80;;;;;;;9.90;66.67;101273.21;107361;1271;24336;-75
2023/05/27 00:21:37;;;;;;;20.50;3.60;;;;;;;9.85;66.76;101272.36;107594;1268;25329;-75
2023/05/27 00:24:08;;;;;;;17.90;3.10;;;;;;;9.81;66.79;101270.74;107733;1267;22562;-75
2023/05/27 00:26:39;;;;;;;17.20;3.60;;;;;;;9.77;66.89;101271.19;107647;1266;24243;-76
2023/05/27 00:29:10;;;;;;;20.00;2.60;;;;;;;9.73;66.92;101267.16;107581;1271;26525;-76
2023/05/27 00:31:41;;;;;;;18.50;3.50;;;;;;;9.71;67.02;101273.45;107711;1271;22527;-76
2023/05/27 00:34:15;;;;;;;31.90;4.10;;;;;;;9.69;66.96;101270.58;107635;1271;22708;-76
2023/05/27 00:36:45;;;;;;;23.50;3.70;;;;;;;9.66;67.07;101269.31;107648;1265;25620;-76
2023/05/27 00:39:16;;;;;;;23.60;3.20;;;;;;;9.64;67.18;101272.95;107614;1270;22556;-76
2023/05/27 00:41:50;;;;;;;23.70;3.50;;;;;;;9.61;67.08;101275.92;107720;1269;22529;-75
2023/05/27 00:44:21;;;;;;;17.70;3.30;;;;;;;9.56;67.14;101275.61;110743;1266;22117;-76
2023/05/27 00:46:52;;;;;;;19.60;2.60;;;;;;;9.49;67.44;101275.83;110663;1263;22341;-76
2023/05/27 00:49:25;;;;;;;21.40;3.10;;;;;;;9.44;67.67;101272.11;110752;1272;22210;-75
2023/05/27 00:51:56;;;;;;;20.60;4.00;;;;;;;9.39;67.92;101274.81;110722;1272;22162;-76
2023/05/27 00:54:27;;;;;;;21.40;3.30;;;;;;;9.35;68.13;101275.25;110730;1268;22214;-76
2023/05/27 00:56:58;;;;;;;18.90;3.50;;;;;;;9.33;68.23;101273.65;110748;1269;22192;-76
2023/05/27 00:59:29;;;;;;;21.50;2.80;;;;;;;9.26;68.37;101275.39;110722;1266;22220;-76
2023/05/27 01:02:00;;;;;;;24.30;3.30;;;;;;;9.17;68.62;101272.39;110709;1272;22244;-76
2023/05/27 01:04:31;;;;;;;18.60;3.30;;;;;;;9.10;68.78;101273.48;108229;1257;22507;-75
2023/05/27 01:07:11;;;;;;;26.10;3.30;;;;;;;9.09;68.91;101275.34;107548;1266;26878;-76
2023/05/27 01:09:50;;;;;;;21.80;2.90;;;;;;;9.07;69.01;101276.38;107620;1266;22511;-75
2023/05/27 01:12:32;;;;;;;20.50;4.00;;;;;;;9.04;69.04;101275.04;107622;1272;22522;-76
2023/05/27 01:15:06;;;;;;;20.10;4.20;;;;;;;9.02;69.31;101278.58;107552;1266;22538;-76
2023/05/27 01:17:42;;;;;;;27.00;3.60;;;;;;;8.98;69.59;101278.05;110747;1265;22334;-76
2023/05/27 01:20:15;;;;;;;20.50;3.30;;;;;;;8.92;69.78;101278.31;110217;1269;22559;-76
2023/05/27 01:22:47;;;;;;;22.70;3.00;;;;;;;8.90;69.72;101275.67;110727;1271;22263;-76
2023/05/27 01:25:18;;;;;;;20.90;2.90;;;;;;;8.88;69.81;101275.34;110734;1269;22269;-77
2023/05/27 01:27:51;;;;;;;23.30;3.40;;;;;;;8.87;69.94;101276.81;110733;1271;23007;-77
2023/05/27 01:30:22;;;;;;;20.40;3.80;;;;;;;8.85;69.91;101279.73;110761;1268;22266;-76
2023/05/27 01:32:59;;;;;;;26.80;4.30;;;;;;;8.82;69.96;101280.36;110663;1269;22249;-76
2023/05/27 01:35:35;;;;;;;20.80;3.60;;;;;;;8.76;69.90;101287.45;110714;1266;23247;-77
2023/05/27 01:38:10;;;;;;;19.60;2.90;;;;;;;8.71;69.90;101287.06;110744;1268;22211;-75
2023/05/27 01:40:42;;;;;;;19.20;3.30;;;;;;;8.67;70.17;101292.73;110753;1266;22204;-76
2023/05/27 01:43:14;;;;;;;24.10;3.50;;;;;;;8.64;70.12;101294.27;110760;1272;22243;-76
2023/05/27 01:45:45;;;;;;;21.80;3.00;;;;;;;8.58;70.19;101297.91;110753;1266;22207;-76
2023/05/27 01:48:16;;;;;;;20.30;3.80;;;;;;;8.52;70.22;101299.20;108096;1272;22626;-76
2023/05/27 01:50:47;;;;;;;18.00;2.90;;;;;;;8.50;70.25;101293.78;107664;1269;22577;-75
2023/05/27 01:53:18;;;;;;;24.10;3.30;;;;;;;8.48;70.35;101294.63;107605;1271;22528;-75
2023/05/27 01:55:49;;;;;;;23.30;4.10;;;;;;;8.46;70.36;101292.69;107666;1271;22712;-75
2023/05/27 01:58:20;;;;;;;24.40;3.00;;;;;;;8.43;70.50;101295.45;107711;1271;22531;-76
2023/05/27 02:00:51;;;;;;;23.00;3.10;;;;;;;8.39;70.49;101297.73;107598;1272;22502;-75
2023/05/27 02:03:22;;;;;;;18.20;3.10;;;;;;;8.33;70.63;101292.10;107668;1271;24313;-75
2023/05/27 02:05:55;;;;;;;18.20;3.20;;;;;;;8.26;70.86;101289.41;107516;1269;22553;-76
2023/05/27 02:08:27;;;;;;;22.80;3.30;;;;;;;8.18;70.86;101286.11;107719;1269;22537;-75
2023/05/27 02:10:58;;;;;;;18.60;3.50;;;;;;;8.12;70.85;101286.41;107722;1271;25250;-75
2023/05/27 02:13:29;;;;;;;20.90;3.10;;;;;;;8.06;70.98;101280.92;107745;1266;22521;-76
2023/05/27 02:15:59;;;;;;;19.80;4.00;;;;;;;8.02;71.35;101278.65;107631;1268;22543;-76
2023/05/27 02:18:31;;;;;;;21.10;3.60;;;;;;;8.00;71.68;101281.34;107589;1266;26534;-76
2023/05/27 02:21:05;;;;;;;21.50;3.50;;;;;;;7.98;71.97;101280.58;107548;1271;22667;-75
2023/05/27 02:23:37;;;;;;;18.60;3.00;;;;;;;7.95;72.26;101286.48;110728;1269;22143;-75
2023/05/27 02:26:07;;;;;;;17.80;2.70;;;;;;;7.92;72.13;101290.38;110725;1271;22343;-76
2023/05/27 02:28:38;;;;;;;21.80;3.50;;;;;;;7.88;71.96;101292.84;110726;1266;22351;-75
2023/05/27 02:31:09;;;;;;;20.10;3.40;;;;;;;7.83;72.06;101293.36;110722;1271;22772;-73
2023/05/27 02:33:40;;;;;;;17.30;2.30;;;;;;;7.78;72.30;101293.71;110743;1269;22163;-73
2023/05/27 02:36:11;;;;;;;18.50;2.10;;;;;;;7.74;72.35;101291.77;109628;1271;22513;-73
2023/05/27 02:38:42;;;;;;;20.20;2.90;;;;;;;7.70;72.26;101292.39;108866;1271;25204;-73
2023/05/27 02:41:13;;;;;;;13.50;2.70;;;;;;;7.67;72.40;101296.61;108450;1271;22537;-73
2023/05/27 02:43:43;;;;;;;17.60;2.90;;;;;;;7.64;72.65;101299.87;107648;1271;22568;-73
2023/05/27 02:46:14;;;;;;;24.60;3.30;;;;;;;7.62;72.68;101298.17;107626;1272;22504;-73
2023/05/27 02:48:45;;;;;;;22.20;4.00;;;;;;;7.60;72.78;101301.77;107559;1266;22519;-73
2023/05/27 02:51:17;;;;;;;22.70;3.20;;;;;;;7.59;72.89;101304.44;107639;1269;22517;-72
2023/05/27 02:53:47;;;;;;;23.50;3.50;;;;;;;7.57;73.05;101302.17;107568;1266;25552;-73
2023/05/27 02:56:18;;;;;;;23.50;3.80;;;;;;;7.54;73.76;101301.77;107564;1266;24245;-73
2023/05/27 02:58:50;;;;;;;22.70;3.40;;;;;;;7.52;73.48;101303.80;107771;1267;22565;-74
2023/05/27 03:01:21;;;;;;;20.90;3.40;;;;;;;7.50;73.60;101302.48;107745;1262;26660;-73
2023/05/27 03:03:51;;;;;;;20.40;3.80;;;;;;;7.45;73.72;101304.12;107685;1269;25327;-73
2023/05/27 03:06:22;;;;;;;15.70;2.90;;;;;;;7.40;73.67;101303.52;107563;1272;22570;-74
2023/05/27 03:08:53;;;;;;;22.10;3.20;;;;;;;7.34;73.76;101305.00;107543;1269;24193;-74
2023/05/27 03:11:23;;;;;;;19.80;2.90;;;;;;;7.30;73.79;101310.88;107526;1262;22550;-73
2023/05/27 03:13:54;;;;;;;17.20;3.00;;;;;;;7.25;73.88;101314.19;107513;1266;24196;-73
2023/05/27 03:16:25;;;;;;;16.30;2.50;;;;;;;7.21;73.96;101310.71;107652;1266;22506;-73
2023/05/27 03:18:55;;;;;;;19.50;2.60;;;;;;;7.20;74.24;101317.88;107687;1266;25191;-73
2023/05/27 03:21:27;;;;;;;26.60;5.40;;;;;;;7.21;74.77;101316.56;107822;1266;22548;-72
2023/05/27 03:23:58;;;;;;;17.40;3.80;;;;;;;7.23;75.02;101315.02;107580;1256;22533;-72
2023/05/27 03:26:29;;;;;;;19.70;3.50;;;;;;;7.23;75.08;101318.73;107611;1272;25322;-74
2023/05/27 03:29:00;;;;;;;22.80;2.90;;;;;;;7.23;75.02;101319.55;107602;1271;22547;-73
2023/05/27 03:31:30;;;;;;;28.60;3.90;;;;;;;7.21;75.00;101321.89;107577;1266;22531;-73
2023/05/27 03:34:02;;;;;;;22.10;3.20;;;;;;;7.22;75.32;101329.80;107673;1269;22514;-73
2023/05/27 03:36:34;;;;;;;20.90;2.40;;;;;;;7.23;75.33;101326.44;107627;1268;22559;-73
2023/05/27 03:39:05;;;;;;;22.00;3.70;;;;;;;7.23;75.57;101330.97;107621;1269;24190;-73
2023/05/27 03:41:37;;;;;;;19.10;3.30;;;;;;;7.24;75.86;101338.55;107624;1268;25515;-73
2023/05/27 03:44:07;;;;;;;23.20;3.40;;;;;;;7.24;75.83;101335.93;107603;1272;26688;-72
2023/05/27 03:46:38;;;;;;;15.30;2.80;;;;;;;7.25;75.99;101338.69;107672;1266;25220;-72
2023/05/27 03:49:09;;;;;;;17.70;2.70;;;;;;;7.26;76.03;101343.04;107665;1272;25454;-73
2023/05/27 03:51:40;;;;;;;18.70;2.50;;;;;;;7.27;76.29;101346.25;107700;1272;22522;-73
2023/05/27 03:54:11;;;;;;;19.50;3.80;;;;;;;7.31;76.43;101344.98;107584;1269;22626;-73
2023/05/27 03:56:42;;;;;;;22.50;4.50;;;;;;;7.34;76.62;101342.29;107548;1257;24249;-73
2023/05/27 03:59:13;;;;;;;22.70;3.00;;;;;;;7.39;76.62;101343.02;107589;1272;22517;-74
2023/05/27 04:01:46;;;;;;;27.10;4.00;;;;;;;7.43;76.86;101347.05;107641;1271;22544;-73
2023/05/27 04:04:18;;;;;;;23.30;3.00;;;;;;;7.48;77.18;101351.12;107677;1272;22537;-73
2023/05/27 04:06:48;;;;;;;24.30;3.80;;;;;;;7.55;77.51;101357.39;107640;1266;25325;-73
2023/05/27 04:09:19;;;;;;;27.10;3.70;;;;;;;7.61;77.85;101362.34;107672;1266;22557;-73
2023/05/27 04:11:50;;;;;;;19.30;3.30;;;;;;;7.66;77.96;101363.19;107634;1256;22541;-73
2023/05/27 04:14:21;;;;;;;25.90;3.70;;;;;;;7.72;78.01;101367.98;107633;1272;22629;-73
2023/05/27 04:16:52;;;;;;;23.10;3.40;;;;;;;7.78;78.22;101365.05;107659;1266;22652;-73
2023/05/27 04:19:23;;;;;;;29.80;5.60;;;;;;;7.83;78.34;101368.26;107613;1267;25340;-73
2023/05/27 04:21:53;;;;;;;29.30;4.50;;;;;;;7.88;78.40;101366.77;107622;1272;25382;-73
2023/05/27 04:24:24;;;;;;;27.10;4.30;;;;;;;7.94;78.60;101366.41;107615;1266;22518;-73
2023/05/27 04:26:55;;;;;;;13.90;2.40;;;;;;;7.98;78.83;101365.75;107582;1269;22528;-73
2023/05/27 04:29:27;;;;;;;24.30;3.40;;;;;;;8.01;78.91;101366.23;107597;1265;22699;-74
2023/05/27 04:31:58;;;;;;;28.40;4.60;;;;;;;8.07;79.20;101369.81;107711;1263;25266;-72
2023/05/27 04:34:29;;;;;;;22.20;3.00;;;;;;;8.12;79.50;101367.93;107706;1266;22534;-72
2023/05/27 04:37:00;;;;;;;28.70;3.90;;;;;;;8.18;79.57;101370.89;107492;1271;22764;-72
2023/05/27 04:39:32;;;;;;;23.10;4.90;;;;;;;8.25;79.70;101367.08;107553;1272;22591;-73
2023/05/27 04:42:03;;;;;;;20.20;2.90;;;;;;;8.32;79.92;101369.54;107541;1271;22727;-73
2023/05/27 04:44:35;;;;;;;19.90;3.90;;;;;;;8.39;80.12;101370.64;107544;1269;24284;-73
2023/05/27 04:47:06;;;;;;;24.90;4.00;;;;;;;8.45;80.26;101372.61;107652;1271;22521;-73
2023/05/27 04:49:37;;;;;;;23.80;4.40;;;;;;;8.54;80.63;101377.39;107770;1272;25420;-72
2023/05/27 04:52:09;;;;;;;22.70;5.20;;;;;;;8.63;80.61;101376.73;107695;1271;24294;-72
2023/05/27 04:54:39;;;;;;;21.20;4.10;;;;;;;8.73;80.60;101380.63;107669;1266;25385;-73
2023/05/27 04:57:10;;;;;;;28.30;4.30;;;;;;;8.82;80.31;101376.63;107679;1256;26641;-73
2023/05/27 04:59:58;;;;;;;24.90;3.60;;;;;;;8.93;80.08;101373.63;107695;1271;22532;-72
2023/05/27 05:02:34;;;;;;;33.20;6.60;;;;;;;9.05;80.06;101373.59;107579;1269;25718;-74
2023/05/27 05:05:07;;;;;;;19.80;4.30;;;;;;;9.15;79.89;101369.86;107637;1266;22658;-76
2023/05/27 05:07:37;;;;;;;19.20;3.90;;;;;;;9.28;79.80;101377.95;107662;1267;24833;-73
2023/05/27 05:10:11;;;;;;;23.80;3.80;;;;;;;9.38;79.57;101378.45;107687;1263;22518;-73
2023/05/27 05:12:42;;;;;;;28.10;5.10;;;;;;;9.47;79.49;101374.57;110608;1266;22947;-74
2023/05/27 05:15:13;;;;;;;24.60;4.30;;;;;;;9.56;79.40;101377.89;110678;1272;22250;-74
2023/05/27 05:17:43;;;;;;;29.60;3.10;;;;;;;9.67;79.55;101371.80;110672;1269;22199;-74
2023/05/27 05:20:15;;;;;;;24.60;5.00;;;;;;;9.81;78.96;101372.16;110734;1267;23013;-74
2023/05/27 05:22:46;;;;;;;30.20;3.80;;;;;;;9.97;78.87;101374.52;110684;1266;22176;-72
2023/05/27 05:25:17;;;;;;;26.20;3.60;;;;;;;10.10;78.63;101380.08;110753;1272;22230;-72
2023/05/27 05:27:48;;;;;;;31.40;4.50;;;;;;;10.26;78.61;101380.53;110741;1272;22179;-72
2023/05/27 05:30:18;;;;;;;23.10;3.00;;;;;;;10.43;78.38;101376.05;110750;1272;22182;-72
2023/05/27 05:32:49;;;;;;;21.40;3.20;;;;;;;10.57;77.83;101374.05;110704;1256;22399;-72
2023/05/27 05:35:20;;;;;;;21.60;3.70;;;;;;;10.70;77.40;101378.75;110752;1269;22145;-72
2023/05/27 05:37:51;;;;;;;21.40;3.20;;;;;;;10.82;77.08;101382.13;110651;1269;22190;-72
2023/05/27 05:40:22;;;;;;;23.30;3.40;;;;;;;10.91;76.78;101377.95;110737;1270;22122;-72
2023/05/27 05:42:53;;;;;;;18.70;2.80;;;;;;;11.06;76.61;101376.11;110718;1264;22970;-73
2023/05/27 05:45:25;;;;;;;20.90;3.60;;;;;;;11.15;76.19;101379.38;110716;1270;22491;-73
2023/05/27 05:47:55;;;;;;;19.40;3.90;;;;;;;11.21;75.86;101379.36;110741;1266;22139;-73
2023/05/27 05:50:27;;;;;;;23.20;3.00;;;;;;;11.31;75.83;101379.80;110717;1269;22334;-72
2023/05/27 05:52:57;;;;;;;19.20;3.10;;;;;;;11.39;74.98;101384.54;110682;1269;23123;-75
2023/05/27 05:55:28;;;;;;;19.00;3.30;;;;;;;11.51;75.09;101385.94;108735;1265;22518;-76
2023/05/27 05:58:00;;;;;;;20.60;3.10;;;;;;;11.64;74.43;101389.31;107639;1269;24207;-77
2023/05/27 06:00:31;;;;;;;24.00;3.30;;;;;;;11.73;74.00;101387.69;107671;1262;22560;-75
2023/05/27 06:03:02;;;;;;;17.30;2.90;;;;;;;11.87;73.58;101389.65;107681;1266;25395;-76
2023/05/27 06:05:33;;;;;;;16.70;2.40;;;;;;;12.00;73.23;101388.30;107661;1272;22566;-78
2023/05/27 06:08:04;;;;;;;18.60;2.60;;;;;;;12.08;72.89;101390.75;107731;1265;22640;-78
2023/05/27 06:10:35;;;;;;;14.90;2.30;;;;;;;12.20;72.61;101389.73;107842;1267;23892;-75
2023/05/27 06:13:06;;;;;;;19.30;2.20;;;;;;;12.31;72.03;101389.25;108318;1269;22573;-75
2023/05/27 06:15:38;;;;;;;16.80;2.20;;;;;;;12.42;71.76;101393.91;109004;1269;22666;-75
2023/05/27 06:18:09;;;;;;;17.40;1.70;;;;;;;12.55;71.58;101395.45;108404;1268;23453;-76
2023/05/27 06:20:40;;;;;;;15.10;1.60;;;;;;;12.62;70.15;101394.50;107609;1272;24456;-77
2023/05/27 06:23:10;;;;;;;13.90;2.00;;;;;;;12.59;69.56;101394.16;107719;1266;22517;-76
2023/05/27 06:25:42;;;;;;;16.50;2.10;;;;;;;12.61;69.33;101396.15;107763;1262;25214;-76
2023/05/27 06:28:13;;;;;;;14.10;1.70;;;;;;;12.65;69.57;101390.46;107749;1272;22477;-77
2023/05/27 06:30:43;;;;;;;16.50;1.80;;;;;;;12.73;69.26;101393.70;107640;1266;23297;-76
2023/05/27 06:33:14;;;;;;;11.30;1.30;;;;;;;12.78;68.83;101392.92;107640;1266;25268;-76
2023/05/27 06:35:45;;;;;;;10.10;1.10;;;;;;;12.86;68.08;101390.58;107553;1272;23254;-76
2023/05/27 06:38:17;;;;;;;16.50;1.70;;;;;;;12.89;67.50;101396.94;107570;1266;22631;-76
2023/05/27 06:40:48;;;;;;;11.10;1.30;;;;;;;12.91;67.17;101395.08;110698;1262;23186;-76
2023/05/27 06:43:18;;;;;;;9.20;1.20;;;;;;;12.96;67.02;101387.79;107979;1260;24475;-78
2023/05/27 06:45:49;;;;;;;10.20;1.20;;;;;;;13.04;66.23;101389.54;107706;1269;23163;-77
2023/05/27 06:48:20;;;;;;;12.60;1.30;;;;;;;13.09;66.33;101392.73;107621;1268;22650;-77
2023/05/27 06:50:51;;;;;;;14.00;1.30;;;;;;;13.12;66.00;101390.73;107714;1269;22526;-77
2023/05/27 06:53:21;;;;;;;10.60;1.10;;;;;;;13.19;65.72;101399.33;107665;1262;22505;-77
2023/05/27 06:55:52;;;;;;;9.00;1.20;;;;;;;13.23;65.45;101398.48;107722;1272;22526;-77
2023/05/27 06:58:23;;;;;;;11.50;1.10;;;;;;;13.31;65.05;101400.73;107538;1269;25505;-79
2023/05/27 07:00:54;;;;;;;13.50;1.40;;;;;;;13.38;64.12;101398.97;107573;1272;24236;-77
2023/05/27 07:03:27;;;;;;;14.90;1.50;;;;;;;13.42;64.09;101400.62;107682;1266;25343;-77
2023/05/27 07:05:58;;;;;;;16.70;1.70;;;;;;;13.48;64.19;101396.77;107805;1266;23235;-78
2023/05/27 07:08:29;;;;;;;11.30;1.80;;;;;;;13.53;63.00;101399.88;107741;1267;25367;-77
2023/05/27 07:11:00;;;;;;;11.80;2.20;;;;;;;13.58;63.07;101403.02;107694;1266;23959;-77
2023/05/27 07:13:31;;;;;;;8.50;1.10;;;;;;;13.59;62.59;101403.02;107639;1266;24198;-77
2023/05/27 07:16:01;;;;;;;12.20;1.50;;;;;;;13.63;62.14;101398.45;107603;1272;24249;-77
2023/05/27 07:18:32;;;;;;;13.30;1.10;;;;;;;13.65;61.75;101396.70;107558;1270;23292;-77
2023/05/27 07:21:03;;;;;;;7.80;1.40;;;;;;;13.66;61.40;101392.20;107628;1272;25328;-77
2023/05/27 07:23:33;;;;;;;19.70;1.30;;;;;;;13.71;60.72;101391.00;107688;1269;25217;-78
2023/05/27 07:26:04;;;;;;;9.10;1.20;;;;;;;13.77;60.35;101390.25;107664;1267;24240;-78
2023/05/27 07:28:37;;;;;;;10.20;1.30;;;;;;;13.84;60.41;101393.38;107623;1272;22540;-77
2023/05/27 07:31:08;;;;;;;11.10;1.10;;;;;;;13.92;60.66;101390.41;107564;1272;25309;-77
2023/05/27 07:33:38;;;;;;;8.80;1.00;;;;;;;14.00;60.19;101386.35;107621;1269;22956;-80
2023/05/27 07:36:10;;;;;;;9.30;1.20;;;;;;;14.04;58.75;101387.58;107579;1266;22512;-77
2023/05/27 07:38:40;;;;;;;8.10;1.00;;;;;;;14.07;59.37;101385.04;107657;1269;22540;-77
2023/05/27 07:41:11;;;;;;;6.10;0.90;;;;;;;14.12;59.08;101387.30;107701;1268;24382;-77
2023/05/27 07:43:42;;;;;;;13.50;1.80;;;;;;;14.18;58.63;101379.48;107660;1270;25268;-77
2023/05/27 07:46:13;;;;;;;9.50;1.20;;;;;;;14.26;56.66;101380.73;107516;1272;22540;-77
2023/05/27 07:48:43;;;;;;;14.10;1.40;;;;;;;14.25;57.17;101377.49;107563;1272;22553;-77
2023/05/27 07:51:14;;;;;;;6.90;0.80;;;;;;;14.29;56.82;101374.48;107541;1269;25494;-77
2023/05/27 07:53:45;;;;;;;11.50;1.40;;;;;;;14.36;56.81;101373.08;107573;1272;22784;-77
2023/05/27 07:56:15;;;;;;;6.60;0.80;;;;;;;14.42;55.88;101375.74;107629;1266;22514;-76
2023/05/27 07:58:46;;;;;;;7.30;0.90;;;;;;;14.45;55.92;101370.61;107815;1263;24202;-79
2023/05/27 08:01:17;;;;;;;11.40;1.20;;;;;;;14.49;55.95;101372.69;107756;1269;22630;-77
2023/05/27 08:03:48;;;;;;;10.30;1.30;;;;;;;14.52;55.43;101369.89;107630;1272;22513;-77
2023/05/27 08:06:19;;;;;;;9.00;1.40;;;;;;;14.53;55.53;101363.78;107635;1272;22551;-77
2023/05/27 08:08:50;;;;;;;9.20;1.00;;;;;;;14.56;55.25;101366.35;107594;1270;23302;-77
2023/05/27 08:11:21;;;;;;;12.00;1.40;;;;;;;14.56;55.05;101366.20;107603;1272;23146;-77
2023/05/27 08:13:52;;;;;;;9.50;0.90;;;;;;;14.58;55.86;101366.24;108340;1261;26553;-77
2023/05/27 08:16:23;;;;;;;8.90;0.90;;;;;;;14.68;54.62;101364.73;107614;1254;24212;-79
2023/05/27 08:18:53;;;;;;;8.80;1.10;;;;;;;14.76;54.71;101362.67;107551;1272;22537;-77
2023/05/27 08:21:24;;;;;;;10.80;1.00;;;;;;;14.85;54.19;101359.80;107678;1270;24316;-77
2023/05/27 08:23:56;;;;;;;10.30;1.80;;;;;;;14.89;54.30;101354.17;107426;1269;22539;-77
2023/05/27 08:26:27;;;;;;;13.30;1.10;;;;;;;14.94;53.85;101355.70;107508;1266;25226;-79
2023/05/27 08:28:57;;;;;;;7.80;1.00;;;;;;;14.99;53.94;101355.23;107644;1269;25309;-77
2023/05/27 08:31:28;;;;;;;11.70;1.30;;;;;;;15.00;52.91;101358.81;107669;1272;23901;-77
2023/05/27 08:33:59;;;;;;;16.00;2.60;;;;;;;14.97;53.15;101354.46;107631;1272;22583;-77
2023/05/27 08:36:31;;;;;;;13.30;1.60;;;;;;;15.04;53.36;101358.14;107606;1272;25308;-78
2023/05/27 08:39:02;;;;;;;13.70;1.20;;;;;;;15.11;53.86;101352.04;107667;1272;22656;-78
2023/05/27 08:41:33;;;;;;;10.80;1.10;;;;;;;15.19;53.58;101350.70;107634;1272;24258;-78
2023/05/27 08:44:04;;;;;;;9.20;1.30;;;;;;;15.23;53.32;101348.73;107433;1270;22565;-77
2023/05/27 08:46:37;;;;;;;11.00;1.50;;;;;;;15.26;53.17;101342.06;107613;1267;22540;-77
2023/05/27 08:49:08;;;;;;;8.70;1.10;;;;;;;15.32;52.96;101340.13;107656;1272;24279;-77
2023/05/27 08:51:41;;;;;;;11.50;1.70;;;;;;;15.37;52.75;101344.92;107554;1271;22591;-77
2023/05/27 08:54:13;;;;;;;9.40;1.10;;;;;;;15.43;51.82;101343.45;110771;1270;22309;-78
2023/05/27 08:56:46;;;;;;;7.20;1.20;;;;;;;15.47;52.38;101342.25;110699;1268;22273;-78
2023/05/27 08:59:17;;;;;;;8.50;1.10;;;;;;;15.54;52.49;101338.63;109278;1270;23444;-78
2023/05/27 09:01:49;;;;;;;9.90;1.00;;;;;;;15.61;51.54;101339.56;107700;1272;22723;-77
2023/05/27 09:04:20;;;;;;;11.90;1.10;;;;;;;15.65;51.49;101339.94;107655;1267;22836;-78
2023/05/27 09:06:51;;;;;;;8.70;1.10;;;;;;;15.69;50.60;101346.10;107559;1272;25481;-77
2023/05/27 09:09:22;;;;;;;11.80;1.10;;;;;;;15.69;50.82;101344.66;107572;1272;25334;-77
2023/05/27 09:11:54;;;;;;;12.70;1.20;;;;;;;15.70;50.82;101340.13;108242;1266;22522;-78
2023/05/27 09:14:25;;;;;;;10.20;1.30;;;;;;;15.74;50.64;101341.88;110779;1269;22812;-78
2023/05/27 09:16:56;;;;;;;13.90;1.50;;;;;;;15.77;50.06;101341.65;108594;1266;22518;-77
2023/05/27 09:19:27;;;;;;;9.90;1.00;;;;;;;15.78;50.81;101338.65;107583;1267;23357;-78
2023/05/27 09:21:57;;;;;;;8.20;1.30;;;;;;;15.85;49.71;101337.85;107607;1268;22571;-77
2023/05/27 09:24:29;;;;;;;10.50;1.00;;;;;;;15.87;49.58;101338.79;107731;1261;22597;-77
2023/05/27 09:27:00;;;;;;;9.20;1.80;;;;;;;15.91;49.43;101335.77;107518;1272;22651;-78
2023/05/27 09:29:34;;;;;;;6.80;0.90;;;;;;;15.93;49.16;101331.86;107514;1271;22521;-78
2023/05/27 09:32:07;;;;;;;7.50;1.10;;;;;;;15.97;49.24;101325.52;110126;1270;23027;-78
2023/05/27 09:34:43;;;;;;;9.20;1.20;;;;;;;16.00;48.85;101327.66;107750;1272;25423;-80
2023/05/27 09:37:20;;;;;;;5.50;0.90;;;;;;;16.07;49.23;101323.46;108381;1272;22578;-78
2023/05/27 09:39:54;;;;;;;7.50;1.00;;;;;;;16.13;49.34;101324.27;107576;1272;22537;-78
2023/05/27 09:42:24;;;;;;;5.70;0.80;;;;;;;16.17;48.98;101314.27;107658;1272;23457;-77
2023/05/27 09:44:56;;;;;;;9.50;1.00;;;;;;;16.22;49.04;101314.48;107663;1267;22530;-77
2023/05/27 09:47:27;;;;;;;10.10;0.90;;;;;;;16.25;49.14;101314.95;107755;1269;22633;-77
2023/05/27 09:49:59;;;;;;;9.40;1.10;;;;;;;16.33;49.04;101317.35;108330;1267;22483;-78
2023/05/27 09:52:31;;;;;;;8.70;1.20;;;;;;;16.41;49.21;101319.14;108856;1267;22502;-79
2023/05/27 09:55:02;;;;;;;8.40;0.90;;;;;;;16.46;48.29;101316.80;110504;1272;22531;-78
2023/05/27 09:57:34;;;;;;;7.90;1.00;;;;;;;16.49;48.62;101313.89;107515;1272;23380;-78
2023/05/27 10:00:12;;;;;;;6.00;0.90;;;;;;;16.53;47.44;101312.95;107632;1272;22840;-77
2023/05/27 10:02:46;;;;;;;12.30;1.10;;;;;;;16.53;46.78;101314.09;110737;1264;22335;-78
2023/05/27 10:05:20;;;;;;;9.60;1.00;;;;;;;16.54;46.81;101313.75;110786;1249;22165;-79
2023/05/27 10:07:51;;;;;;;7.10;0.90;;;;;;;16.58;46.12;101307.75;110671;1272;22981;-78
2023/05/27 10:10:23;;;;;;;10.70;1.10;;;;;;;16.59;46.38;101306.07;110492;1267;22543;-79
2023/05/27 10:12:55;;;;;;;10.90;1.20;;;;;;;16.66;46.16;101314.15;107496;1272;22517;-78
2023/05/27 10:15:28;;;;;;;7.20;1.10;;;;;;;16.71;45.53;101312.87;107425;1272;25337;-79
2023/05/27 10:18:02;;;;;;;8.10;1.00;;;;;;;16.75;45.49;101304.35;107788;1270;25232;-78
2023/05/27 10:20:35;;;;;;;12.10;1.20;;;;;;;16.80;45.14;101299.48;107671;1272;25236;-79
2023/05/27 10:23:15;;;;;;;8.40;0.90;;;;;;;16.83;44.98;101297.62;110407;1270;22536;-78
2023/05/27 10:25:50;;;;;;;10.50;1.00;;;;;;;16.90;44.70;101295.59;110751;1270;22369;-78
2023/05/27 10:28:28;;;;;;;10.30;1.20;;;;;;;16.94;44.02;101293.98;110756;1270;22287;-78
2023/05/27 10:31:10;;;;;;;6.40;0.90;;;;;;;16.94;43.34;101290.04;110737;1272;23030;-78
2023/05/27 10:33:45;;;;;;;5.00;0.70;;;;;;;16.89;43.21;101286.09;110767;1272;22138;-78
2023/05/27 10:36:23;;;;;;;7.40;1.00;;;;;;;16.89;43.35;101287.57;109906;1269;25327;-78
2023/05/27 10:39:00;;;;;;;12.80;1.30;;;;;;;16.93;43.08;101284.52;107549;1272;25514;-78
2023/05/27 10:41:38;;;;;;;5.70;0.80;;;;;;;16.96;43.46;101279.48;110760;1272;22332;-78
2023/05/27 10:44:10;;;;;;;4.20;0.90;;;;;;;17.04;42.83;101281.60;110650;1265;170942;-78
2023/05/27 10:46:42;;;;;;;6.30;1.00;;;;;;;17.09;42.36;101276.17;110223;1267;22533;-79
2023/05/27 10:49:16;;;;;;;4.90;0.70;;;;;;;17.11;42.50;101277.31;110397;1272;25258;-79
2023/05/27 10:51:50;;;;;;;6.90;0.90;;;;;;;17.14;41.70;101280.06;107536;1267;25532;-78
2023/05/27 10:54:24;;;;;;;6.90;0.80;;;;;;;17.12;41.50;101279.52;107589;1272;22666;-78
2023/05/27 10:56:55;;;;;;;6.00;0.70;;;;;;;17.16;41.84;101274.74;107539;1267;25330;-78
2023/05/27 10:59:33;;;;;;;7.00;0.70;;;;;;;17.17;41.43;101273.33;107708;1265;22933;-78
2023/05/27 11:02:06;;;;;;;8.60;0.80;;;;;;;17.19;41.72;101269.33;107641;1272;22557;-78
2023/05/27 11:04:38;;;;;;;8.20;0.90;;;;;;;17.24;41.83;101267.95;107481;1272;23074;-78
2023/05/27 11:07:09;;;;;;;5.70;0.60;;;;;;;17.32;42.14;101265.43;107482;1272;22515;-78
2023/05/27 11:09:47;;;;;;;4.50;0.70;;;;;;;17.41;42.25;101267.30;107557;1270;22562;-79
2023/05/27 11:12:18;;;;;;;7.60;0.90;;;;;;;17.45;40.72;101269.17;107664;1272;22558;-78
2023/05/27 11:14:52;;;;;;;7.90;0.70;;;;;;;17.39;41.35;101267.64;110779;1264;22391;-78
2023/05/27 11:17:24;;;;;;;6.00;0.80;;;;;;;17.45;41.60;101265.95;110768;1270;22867;-79
2023/05/27 11:19:56;;;;;;;7.70;0.90;;;;;;;17.47;40.79;101265.23;110731;1270;22194;-78
2023/05/27 11:22:26;;;;;;;10.70;1.00;;;;;;;17.47;41.47;101258.58;107822;1267;24232;-78
2023/05/27 11:25:03;;;;;;;6.50;0.80;;;;;;;17.52;40.86;101256.42;107617;1272;22530;-77
2023/05/27 11:27:39;;;;;;;6.30;0.80;;;;;;;17.56;40.60;101260.41;107666;1264;22528;-78
2023/05/27 11:30:12;;;;;;;7.10;1.20;;;;;;;17.57;40.57;101259.75;107740;1262;25214;-78
2023/05/27 11:32:44;;;;;;;6.70;0.90;;;;;;;17.61;40.47;101262.90;110795;1267;23666;-79
2023/05/27 11:35:18;;;;;;;6.60;0.90;;;;;;;17.61;40.02;101262.42;110800;1266;22229;-78